createdAt,value
2022-11-27T00:02:24.478Z,53.62
2022-11-27T00:04:51.304Z,53.16
2022-11-27T00:07:18.168Z,53.76
2022-11-27T00:09:44.969Z,54.06
2022-11-27T00:12:11.946Z,54.01
2022-11-27T00:14:38.621Z,53.99
2022-11-27T00:17:05.378Z,54.08
2022-11-27T00:19:33.412Z,53.64
2022-11-27T00:22:00.362Z,54.64
2022-11-27T00:24:27.231Z,54.75
2022-11-27T00:26:54.102Z,54.42
2022-11-27T00:29:22.153Z,54.15
2022-11-27T00:31:49.172Z,54.21
2022-11-27T00:34:15.949Z,54.49
2022-11-27T00:36:46.634Z,54.62
2022-11-27T00:39:15.132Z,54.75
2022-11-27T00:41:41.803Z,54.77
2022-11-27T00:44:08.524Z,54.38
2022-11-27T00:46:35.922Z,54.96
2022-11-27T00:49:06.097Z,54.82
2022-11-27T00:51:33.164Z,55.72
2022-11-27T00:54:00.284Z,56.03
2022-11-27T00:56:33.489Z,55.45
2022-11-27T00:59:01.223Z,55.69
2022-11-27T01:01:38.767Z,55.64
2022-11-27T01:04:08.878Z,55.50
2022-11-27T01:06:35.599Z,55.34
2022-11-27T01:09:03.619Z,54.89
2022-11-27T01:11:32.166Z,56.09
2022-11-27T01:14:01.676Z,56.24
2022-11-27T01:16:30.051Z,56.16
2022-11-27T01:18:59.157Z,56.20
2022-11-27T01:21:28.572Z,56.69
2022-11-27T01:23:55.731Z,56.75
2022-11-27T01:26:23.138Z,55.96
2022-11-27T01:28:54.808Z,56.30
2022-11-27T01:31:28.008Z,55.54
2022-11-27T01:33:58.234Z,55.53
2022-11-27T01:36:26.034Z,55.16
2022-11-27T01:38:52.982Z,54.83
2022-11-27T01:41:41.488Z,54.65
2022-11-27T01:44:26.173Z,55.25
2022-11-27T01:47:05.849Z,54.41
2022-11-27T01:49:37.983Z,54.67
2022-11-27T01:52:12.194Z,54.92
2022-11-27T01:54:39.391Z,54.97
2022-11-27T01:57:13.413Z,55.32
2022-11-27T01:59:41.349Z,54.68
2022-11-27T02:02:08.355Z,55.16
2022-11-27T02:04:35.376Z,55.33
2022-11-27T02:07:02.271Z,54.59
2022-11-27T02:09:29.992Z,54.65
2022-11-27T02:12:27.254Z,54.54
2022-11-27T02:15:13.280Z,54.59
2022-11-27T02:18:03.498Z,55.19
2022-11-27T02:20:43.236Z,54.60
2022-11-27T02:23:47.689Z,55.06
2022-11-27T02:26:41.806Z,54.96
2022-11-27T02:29:13.722Z,54.38
2022-11-27T02:31:46.495Z,54.35
2022-11-27T02:34:37.092Z,55.54
2022-11-27T02:37:24.218Z,55.85
2022-11-27T02:40:28.453Z,55.31
2022-11-27T02:43:09.280Z,56.02
2022-11-27T02:45:43.340Z,55.37
2022-11-27T02:48:13.586Z,55.45
2022-11-27T02:50:44.294Z,54.51
2022-11-27T02:53:19.173Z,54.55
2022-11-27T02:55:48.893Z,54.86
2022-11-27T02:58:19.823Z,54.79
2022-11-27T03:00:47.745Z,54.62
2022-11-27T03:03:18.750Z,54.87
2022-11-27T03:05:49.613Z,55.45
2022-11-27T03:08:32.516Z,54.63
2022-11-27T03:11:06.305Z,55.43
2022-11-27T03:13:38.470Z,55.00
2022-11-27T03:16:12.265Z,55.82
2022-11-27T03:18:54.274Z,55.42
2022-11-27T03:21:42.380Z,55.11
2022-11-27T03:24:10.278Z,56.04
2022-11-27T03:26:38.256Z,57.95
2022-11-27T03:29:09.892Z,57.91
2022-11-27T03:31:38.053Z,57.03
2022-11-27T03:34:05.406Z,56.70
2022-11-27T03:36:32.254Z,56.15
2022-11-27T03:38:58.984Z,56.73
2022-11-27T03:41:41.088Z,56.94
2022-11-27T03:44:41.180Z,58.56
2022-11-27T03:47:27.113Z,58.04
2022-11-27T03:50:14.643Z,58.50
2022-11-27T03:52:59.529Z,58.28
2022-11-27T03:55:49.629Z,59.24
2022-11-27T03:58:28.861Z,59.96
2022-11-27T04:00:59.151Z,59.28
2022-11-27T04:03:30.348Z,58.78
2022-11-27T04:05:57.633Z,58.60
2022-11-27T04:08:24.901Z,57.80
2022-11-27T04:10:51.754Z,59.92
2022-11-27T04:13:18.505Z,59.92
2022-11-27T04:15:45.376Z,59.87
2022-11-27T04:18:12.536Z,59.27
2022-11-27T04:20:39.433Z,60.00
2022-11-27T04:23:06.190Z,59.66
2022-11-27T04:25:33.176Z,59.64
2022-11-27T04:27:59.919Z,60.70
2022-11-27T04:30:26.622Z,59.95
2022-11-27T04:32:53.673Z,59.57
2022-11-27T04:35:20.443Z,59.36
2022-11-27T04:37:47.323Z,59.07
2022-11-27T04:40:14.222Z,59.94
2022-11-27T04:42:41.414Z,60.94
2022-11-27T04:45:09.292Z,60.29
2022-11-27T04:47:36.070Z,60.79
2022-11-27T04:50:03.540Z,61.49
2022-11-27T04:52:30.211Z,61.47
2022-11-27T04:55:00.188Z,60.58
2022-11-27T04:57:28.212Z,60.04
2022-11-27T04:59:55.168Z,59.88
2022-11-27T05:02:22.021Z,60.12
2022-11-27T05:04:48.958Z,59.01
2022-11-27T05:07:15.658Z,59.91
2022-11-27T05:09:42.420Z,60.96
2022-11-27T05:12:09.218Z,60.99
2022-11-27T05:14:36.010Z,60.51
2022-11-27T05:17:02.781Z,59.97
2022-11-27T05:19:30.659Z,59.75
2022-11-27T05:21:57.688Z,59.83
2022-11-27T05:24:26.693Z,59.87
2022-11-27T05:26:54.031Z,59.83
2022-11-27T05:29:21.493Z,59.18
2022-11-27T05:31:48.472Z,58.80
2022-11-27T05:34:15.602Z,59.34
2022-11-27T05:36:42.580Z,59.70
2022-11-27T05:39:10.973Z,60.54
2022-11-27T05:41:39.138Z,61.07
2022-11-27T05:44:06.401Z,61.98
2022-11-27T05:46:33.238Z,61.11
2022-11-27T05:49:00.331Z,59.55
2022-11-27T05:51:27.132Z,59.54
2022-11-27T05:53:54.083Z,58.67
2022-11-27T05:56:20.970Z,58.78
2022-11-27T05:58:48.277Z,59.07
2022-11-27T06:01:17.017Z,58.85
2022-11-27T06:03:44.283Z,58.37
2022-11-27T06:06:19.502Z,57.61
2022-11-27T06:08:47.320Z,57.72
2022-11-27T06:11:20.224Z,57.91
2022-11-27T06:13:48.637Z,57.89
2022-11-27T06:16:18.506Z,57.47
2022-11-27T06:18:46.045Z,56.95
2022-11-27T06:21:14.798Z,57.19
2022-11-27T06:23:42.814Z,57.20
2022-11-27T06:26:13.870Z,56.89
2022-11-27T06:28:41.153Z,56.96
2022-11-27T06:31:18.213Z,56.62
2022-11-27T06:33:46.180Z,56.43
2022-11-27T06:36:13.568Z,56.14
2022-11-27T06:38:40.541Z,55.85
2022-11-27T06:41:18.991Z,56.68
2022-11-27T06:43:46.164Z,56.81
2022-11-27T06:46:18.084Z,56.81
2022-11-27T06:48:46.946Z,56.69
2022-11-27T06:51:17.346Z,56.71
2022-11-27T06:53:44.594Z,57.18
2022-11-27T06:56:29.540Z,57.42
2022-11-27T06:59:01.177Z,56.91
2022-11-27T07:01:31.298Z,56.84
2022-11-27T07:03:58.706Z,57.07
2022-11-27T07:06:26.851Z,56.50
2022-11-27T07:08:54.809Z,56.69
2022-11-27T07:11:24.935Z,56.90
2022-11-27T07:13:52.313Z,56.63
2022-11-27T07:16:19.214Z,56.98
2022-11-27T07:18:48.809Z,57.98
2022-11-27T07:21:16.231Z,57.50
2022-11-27T07:23:43.161Z,56.83
2022-11-27T07:26:15.809Z,56.69
2022-11-27T07:28:43.931Z,56.09
2022-11-27T07:31:15.991Z,57.31
2022-11-27T07:33:42.919Z,56.88
2022-11-27T07:36:21.820Z,57.17
2022-11-27T07:38:48.951Z,57.20
2022-11-27T07:41:16.464Z,56.92
2022-11-27T07:43:44.582Z,56.99
2022-11-27T07:46:20.599Z,58.59
2022-11-27T07:48:47.834Z,57.78
2022-11-27T07:51:17.405Z,59.09
2022-11-27T07:53:44.693Z,58.05
2022-11-27T07:56:13.918Z,57.75
2022-11-27T07:58:41.073Z,56.87
2022-11-27T08:01:09.844Z,57.02
2022-11-27T08:03:37.052Z,56.28
2022-11-27T08:06:04.926Z,56.70
2022-11-27T08:08:32.461Z,57.67
2022-11-27T08:10:59.217Z,57.36
2022-11-27T08:13:25.932Z,57.71
2022-11-27T08:15:52.929Z,57.38
2022-11-27T08:18:19.633Z,57.97
2022-11-27T08:20:46.478Z,57.13
2022-11-27T08:23:13.221Z,56.83
2022-11-27T08:25:40.200Z,57.17
2022-11-27T08:28:06.865Z,57.04
2022-11-27T08:30:34.093Z,56.72
2022-11-27T08:33:00.959Z,56.27
2022-11-27T08:35:27.799Z,57.57
2022-11-27T08:37:54.720Z,56.93
2022-11-27T08:40:21.595Z,57.46
2022-11-27T08:42:48.360Z,57.61
2022-11-27T08:45:15.360Z,56.57
2022-11-27T08:47:43.442Z,57.04
2022-11-27T08:50:10.718Z,57.04
2022-11-27T08:52:37.627Z,57.28
2022-11-27T08:55:04.912Z,56.63
2022-11-27T08:57:31.729Z,56.73
2022-11-27T08:59:58.564Z,57.84
2022-11-27T09:02:25.279Z,57.99
2022-11-27T09:04:52.143Z,58.19
2022-11-27T09:07:19.055Z,56.83
2022-11-27T09:09:45.917Z,56.39
2022-11-27T09:12:12.851Z,56.23
2022-11-27T09:14:40.136Z,56.12
2022-11-27T09:17:07.235Z,58.54
2022-11-27T09:19:33.962Z,57.12
2022-11-27T09:22:00.869Z,56.50
2022-11-27T09:24:27.590Z,55.58
2022-11-27T09:26:54.538Z,55.95
2022-11-27T09:29:21.461Z,55.44
2022-11-27T09:31:48.337Z,55.36
2022-11-27T09:34:15.327Z,54.81
2022-11-27T09:36:42.073Z,55.10
2022-11-27T09:39:08.941Z,56.18
2022-11-27T09:41:58.642Z,56.86
2022-11-27T09:44:31.034Z,54.56
2022-11-27T09:47:41.181Z,54.17
2022-11-27T09:50:18.497Z,54.87
2022-11-27T09:52:54.014Z,53.96
2022-11-27T09:55:48.734Z,53.91
2022-11-27T09:58:20.273Z,55.25
2022-11-27T10:00:47.953Z,54.78
2022-11-27T10:03:25.648Z,55.26
2022-11-27T10:06:26.578Z,54.83
2022-11-27T10:09:28.084Z,54.18
2022-11-27T10:12:03.305Z,53.95
2022-11-27T10:15:04.861Z,53.68
2022-11-27T10:17:52.229Z,54.08
2022-11-27T10:20:32.332Z,53.49
2022-11-27T10:23:14.000Z,53.13
2022-11-27T10:25:58.515Z,53.53
2022-11-27T10:28:46.153Z,52.42
2022-11-27T10:31:19.989Z,52.60
2022-11-27T10:33:53.771Z,52.91
2022-11-27T10:36:44.931Z,53.34
2022-11-27T10:39:36.938Z,53.61
2022-11-27T10:42:10.740Z,53.43
2022-11-27T10:44:52.228Z,53.45
2022-11-27T10:47:23.181Z,52.24
2022-11-27T10:49:50.141Z,53.00
2022-11-27T10:52:19.918Z,53.00
2022-11-27T10:54:56.707Z,52.89
2022-11-27T10:57:46.807Z,52.35
2022-11-27T11:00:19.173Z,52.94
2022-11-27T11:02:46.205Z,53.59
2022-11-27T11:08:20.487Z,52.51
2022-11-27T11:10:59.430Z,52.69
2022-11-27T11:13:31.537Z,52.55
2022-11-27T11:16:00.449Z,52.32
2022-11-27T11:18:30.788Z,52.77
2022-11-27T11:21:00.489Z,53.26
2022-11-27T11:23:33.857Z,52.32
2022-11-27T11:26:05.465Z,52.84
2022-11-27T11:28:39.386Z,52.07
2022-11-27T11:31:09.954Z,52.14
2022-11-27T11:33:48.226Z,51.42
2022-11-27T11:36:15.491Z,51.29
2022-11-27T11:38:46.838Z,52.11
2022-11-27T11:41:18.131Z,51.92
2022-11-27T11:44:01.978Z,50.99
2022-11-27T11:46:33.721Z,51.99
2022-11-27T11:49:07.461Z,50.67
2022-11-27T11:51:37.328Z,50.49
2022-11-27T11:54:26.667Z,50.51
2022-11-27T11:57:00.183Z,50.34
2022-11-27T11:59:45.537Z,50.50
2022-11-27T12:02:26.260Z,50.19
2022-11-27T12:05:27.171Z,50.63
2022-11-27T12:08:21.697Z,50.59
2022-11-27T12:11:00.115Z,51.41
2022-11-27T12:14:01.018Z,50.80
2022-11-27T12:17:10.315Z,50.25
2022-11-27T12:19:55.221Z,49.97
2022-11-27T12:23:00.516Z,49.48
2022-11-27T12:25:37.727Z,49.32
2022-11-27T12:28:53.179Z,50.00
2022-11-27T12:31:58.543Z,51.27
2022-11-27T12:34:56.609Z,50.95
2022-11-27T12:37:49.535Z,51.24
2022-11-27T12:40:40.877Z,50.96
2022-11-27T12:43:26.745Z,50.16
2022-11-27T12:46:18.900Z,49.71
2022-11-27T12:48:56.895Z,49.97
2022-11-27T12:51:32.194Z,48.82
2022-11-27T12:54:17.900Z,49.16
2022-11-27T12:56:52.521Z,49.27
2022-11-27T12:59:38.981Z,49.79
2022-11-27T13:02:13.662Z,49.88
2022-11-27T13:04:48.271Z,50.45
2022-11-27T13:07:26.913Z,50.48
2022-11-27T13:09:56.709Z,51.94
2022-11-27T13:12:33.950Z,50.18
2022-11-27T13:15:06.783Z,50.65
2022-11-27T13:17:42.435Z,50.63
2022-11-27T13:20:18.105Z,49.24
2022-11-27T13:22:46.833Z,49.45
2022-11-27T13:25:14.857Z,48.76
2022-11-27T13:27:46.590Z,49.07
2022-11-27T13:30:34.822Z,48.89
2022-11-27T13:33:06.304Z,49.36
2022-11-27T13:35:36.573Z,48.26
2022-11-27T13:38:14.371Z,48.63
2022-11-27T13:40:45.172Z,48.27
2022-11-27T13:43:42.722Z,49.40
2022-11-27T13:46:18.429Z,49.21
2022-11-27T13:49:05.922Z,48.40
2022-11-27T13:51:35.363Z,47.90
2022-11-27T13:54:12.076Z,49.45
2022-11-27T13:56:40.214Z,48.87
2022-11-27T13:59:36.457Z,47.63
2022-11-27T14:02:08.089Z,46.97
2022-11-27T14:04:35.810Z,46.71
2022-11-27T14:07:13.651Z,46.56
2022-11-27T14:09:45.873Z,46.77
2022-11-27T14:12:33.183Z,47.04
2022-11-27T14:15:08.954Z,46.72
2022-11-27T14:17:44.658Z,49.17
2022-11-27T14:20:17.502Z,47.45
2022-11-27T14:23:11.758Z,47.20
2022-11-27T14:25:39.025Z,46.67
2022-11-27T14:28:26.293Z,46.71
2022-11-27T14:31:01.110Z,46.10
2022-11-27T14:33:47.329Z,46.11
2022-11-27T14:36:26.444Z,46.53
2022-11-27T14:38:53.393Z,46.30
2022-11-27T14:41:22.773Z,46.18
2022-11-27T14:44:19.464Z,45.94
2022-11-27T14:46:46.502Z,45.61
2022-11-27T14:49:19.323Z,44.87
2022-11-27T14:51:46.613Z,45.91
2022-11-27T14:54:34.519Z,45.32
2022-11-27T14:57:02.532Z,45.27
2022-11-27T14:59:29.294Z,44.87
2022-11-27T15:02:16.067Z,44.77
2022-11-27T15:04:44.304Z,44.88
2022-11-27T15:07:20.359Z,46.03
2022-11-27T15:09:50.419Z,46.18
2022-11-27T15:12:23.091Z,45.81
2022-11-27T15:14:56.102Z,45.11
2022-11-27T15:17:36.659Z,45.31
2022-11-27T15:20:13.838Z,45.64
2022-11-27T15:22:49.120Z,45.58
2022-11-27T15:25:38.827Z,45.21
2022-11-27T15:28:47.229Z,45.05
2022-11-27T15:31:25.822Z,45.57
2022-11-27T15:34:15.612Z,45.82
2022-11-27T15:36:47.725Z,45.64
2022-11-27T15:39:19.898Z,45.62
2022-11-27T15:41:51.707Z,46.22
2022-11-27T15:44:18.728Z,46.38
2022-11-27T15:46:46.074Z,46.83
2022-11-27T15:49:14.766Z,46.57
2022-11-27T15:51:42.525Z,47.60
2022-11-27T15:54:09.925Z,46.70
2022-11-27T15:56:36.589Z,45.56
2022-11-27T15:59:04.024Z,46.14
2022-11-27T16:01:30.845Z,45.71
2022-11-27T16:03:58.353Z,46.03
2022-11-27T16:06:25.674Z,46.14
2022-11-27T16:09:00.134Z,46.05
2022-11-27T16:11:29.992Z,45.71
2022-11-27T16:13:57.033Z,45.07
2022-11-27T16:16:24.369Z,45.98
2022-11-27T16:18:51.483Z,45.90
2022-11-27T16:21:18.833Z,45.83
2022-11-27T16:23:45.656Z,46.22
2022-11-27T16:26:14.464Z,45.75
2022-11-27T16:28:42.414Z,45.54
2022-11-27T16:31:12.038Z,45.21
2022-11-27T16:33:38.975Z,45.75
2022-11-27T16:36:08.120Z,45.11
2022-11-27T16:38:35.841Z,45.43
2022-11-27T16:41:06.253Z,45.61
2022-11-27T16:43:38.629Z,46.54
2022-11-27T16:46:11.109Z,46.50
2022-11-27T16:48:39.715Z,46.78
2022-11-27T16:51:13.158Z,47.15
2022-11-27T16:53:42.453Z,46.71
2022-11-27T16:56:11.258Z,46.54
2022-11-27T16:58:40.881Z,46.19
2022-11-27T17:01:12.672Z,47.03
2022-11-27T17:03:40.095Z,47.48
2022-11-27T17:06:19.110Z,47.58
2022-11-27T17:08:46.601Z,48.07
2022-11-27T17:11:15.190Z,48.63
2022-11-27T17:13:42.093Z,49.02
2022-11-27T17:16:09.352Z,48.70
2022-11-27T17:18:38.293Z,48.19
2022-11-27T17:21:18.213Z,48.63
2022-11-27T17:23:46.997Z,48.99
2022-11-27T17:26:16.979Z,48.92
2022-11-27T17:28:44.706Z,47.66
2022-11-27T17:31:37.038Z,48.40
2022-11-27T17:34:05.889Z,49.27
2022-11-27T17:36:37.122Z,49.59
2022-11-27T17:39:06.240Z,49.87
2022-11-27T17:41:34.094Z,51.92
2022-11-27T17:44:04.378Z,50.84
2022-11-27T17:46:32.483Z,51.27
2022-11-27T17:49:01.305Z,51.10
2022-11-27T17:51:30.769Z,50.95
2022-11-27T17:54:02.697Z,50.33
2022-11-27T17:56:32.684Z,51.22
2022-11-27T17:58:59.964Z,50.61
2022-11-27T18:01:29.485Z,50.56
2022-11-27T18:04:00.486Z,50.67
2022-11-27T18:06:30.410Z,49.83
2022-11-27T18:08:58.557Z,49.47
2022-11-27T18:11:28.221Z,50.49
2022-11-27T18:13:58.380Z,51.21
2022-11-27T18:16:29.451Z,50.99
2022-11-27T18:18:58.148Z,50.78
2022-11-27T18:21:28.917Z,50.20
2022-11-27T18:29:30.405Z,51.27
2022-11-27T18:31:57.347Z,51.91
2022-11-27T18:34:24.348Z,51.98
2022-11-27T18:36:51.114Z,52.90
2022-11-27T18:39:18.856Z,52.33
2022-11-27T18:41:45.611Z,52.23
2022-11-27T18:44:12.657Z,53.03
2022-11-27T18:46:39.633Z,51.33
2022-11-27T18:49:07.554Z,53.04
2022-11-27T18:51:35.060Z,53.12
2022-11-27T18:54:02.139Z,54.21
2022-11-27T18:56:31.091Z,54.38
2022-11-27T18:59:04.105Z,54.07
2022-11-27T19:01:40.848Z,54.63
2022-11-27T19:04:08.395Z,53.63
2022-11-27T19:06:35.955Z,53.74
2022-11-27T19:09:03.591Z,54.57
2022-11-27T19:11:31.156Z,53.41
2022-11-27T19:13:59.282Z,53.61
2022-11-27T19:16:34.370Z,54.05
2022-11-27T19:19:03.081Z,54.73
2022-11-27T19:21:32.846Z,55.20
2022-11-27T19:24:03.869Z,55.20
2022-11-27T19:26:33.313Z,53.91
2022-11-27T19:29:03.597Z,53.57
2022-11-27T19:31:33.251Z,55.05
2022-11-27T19:34:02.346Z,55.31
2022-11-27T19:36:31.000Z,55.01
2022-11-27T19:39:04.581Z,54.88
2022-11-27T19:41:31.629Z,54.60
2022-11-27T19:44:03.636Z,54.15
2022-11-27T19:46:33.893Z,55.19
2022-11-27T19:49:05.864Z,54.96
2022-11-27T19:51:35.174Z,53.87
2022-11-27T19:54:08.375Z,53.88
2022-11-27T19:56:40.063Z,53.78
2022-11-27T19:59:08.493Z,53.84
2022-11-27T20:01:37.681Z,53.70
2022-11-27T20:04:05.632Z,54.03
2022-11-27T20:06:32.599Z,56.57
2022-11-27T20:09:02.043Z,55.93
2022-11-27T20:11:34.266Z,55.90
2022-11-27T20:14:04.926Z,55.54
2022-11-27T20:16:34.141Z,54.88
2022-11-27T20:19:05.428Z,55.49
2022-11-27T20:21:34.597Z,55.48
2022-11-27T20:24:02.996Z,54.29
2022-11-27T20:26:30.738Z,56.16
2022-11-27T20:28:59.336Z,57.22
2022-11-27T20:31:32.139Z,57.00
2022-11-27T20:34:01.740Z,56.64
2022-11-27T20:36:30.575Z,55.70
2022-11-27T20:38:59.453Z,56.37
2022-11-27T20:41:27.262Z,57.83
2022-11-27T20:44:00.489Z,57.08
2022-11-27T20:46:29.297Z,56.29
2022-11-27T20:48:56.672Z,57.00
2022-11-27T20:51:30.936Z,56.95
2022-11-27T20:54:00.294Z,56.48
2022-11-27T20:56:29.042Z,56.26
2022-11-27T20:58:57.333Z,55.30
2022-11-27T21:01:26.315Z,55.60
2022-11-27T21:03:55.685Z,57.00
2022-11-27T21:06:26.586Z,57.13
2022-11-27T21:08:55.828Z,57.24
2022-11-27T21:11:28.409Z,57.57
2022-11-27T21:13:59.923Z,57.14
2022-11-27T21:16:30.278Z,56.37
2022-11-27T21:18:59.831Z,56.61
2022-11-27T21:21:26.968Z,57.03
2022-11-27T21:23:54.352Z,55.89
2022-11-27T21:26:21.690Z,56.07
2022-11-27T21:28:50.273Z,55.89
2022-11-27T21:31:22.803Z,55.96
2022-11-27T21:33:55.713Z,56.28
2022-11-27T21:36:26.916Z,56.35
2022-11-27T21:38:54.303Z,56.47
2022-11-27T21:41:21.087Z,56.44
2022-11-27T21:43:49.269Z,56.52
2022-11-27T21:46:19.380Z,56.69
2022-11-27T21:48:47.767Z,56.29
2022-11-27T21:51:15.729Z,56.54
2022-11-27T21:53:44.195Z,56.31
2022-11-27T21:56:14.765Z,56.49
2022-11-27T21:58:43.428Z,56.84
2022-11-27T22:01:14.602Z,56.21
2022-11-27T22:03:42.953Z,56.99
2022-11-27T22:06:14.694Z,56.45
2022-11-27T22:08:44.602Z,56.24
2022-11-27T22:11:18.275Z,56.08
2022-11-27T22:13:45.752Z,55.75
2022-11-27T22:16:21.937Z,57.08
2022-11-27T22:18:49.602Z,57.37
2022-11-27T22:21:17.156Z,57.10
2022-11-27T22:23:44.703Z,57.52
2022-11-27T22:26:16.479Z,56.92
2022-11-27T22:28:43.720Z,57.33
2022-11-27T22:31:13.595Z,57.05
2022-11-27T22:33:42.072Z,57.33
2022-11-27T22:36:18.072Z,58.00
2022-11-27T22:38:49.322Z,57.27
2022-11-27T22:41:17.915Z,56.55
2022-11-27T22:43:46.371Z,56.57
2022-11-27T22:46:23.028Z,56.51
2022-11-27T22:48:58.416Z,56.51
2022-11-27T22:51:27.065Z,56.70
2022-11-27T22:53:53.981Z,56.83
2022-11-27T22:56:21.149Z,57.12
2022-11-27T22:58:48.533Z,58.25
2022-11-27T23:01:18.894Z,57.68
2022-11-27T23:03:45.926Z,58.02
2022-11-27T23:06:17.609Z,57.22
2022-11-27T23:08:46.089Z,56.92
2022-11-27T23:11:21.921Z,57.34
2022-11-27T23:13:50.114Z,57.11
2022-11-27T23:16:17.731Z,57.66
2022-11-27T23:18:44.597Z,57.33
2022-11-27T23:21:17.472Z,56.25
2022-11-27T23:23:45.234Z,56.93
2022-11-27T23:26:18.627Z,57.12
2022-11-27T23:28:46.996Z,56.95
2022-11-27T23:31:33.187Z,57.38
2022-11-27T23:34:02.159Z,56.81
2022-11-27T23:36:30.258Z,57.41
2022-11-27T23:38:59.724Z,56.80
2022-11-27T23:41:27.122Z,57.94
2022-11-27T23:43:54.056Z,57.90
2022-11-27T23:46:25.211Z,57.39
2022-11-27T23:48:54.717Z,58.00
2022-11-27T23:51:27.542Z,57.28
2022-11-27T23:53:54.597Z,57.55
2022-11-27T23:56:24.015Z,57.09
2022-11-27T23:58:50.934Z,57.60
